Time;durP1;ratioP1;P1;durP2;ratioP2;P2;SDS_P1;SDS_P2;PMS_P1;PMS_P2;Temp;Humidity;BMP_temperature;BMP_pressure;BME280_temperature;BME280_humidity;BME280_pressure;Samples;Min_cycle;Max_cycle;Signal;HPM_P1;HPM_P2
2020/12/25 00:00:56;;;;;;;10.27;2.50;;;;;3.20;101572.00;;;;10564955;28;20254;-76
2020/12/25 00:06:09;;;;;;;6.07;2.50;;;;;3.30;101591.00;;;;10550557;28;20290;-76
2020/12/25 00:11:11;;;;;;;6.07;2.10;;;;;3.30;101587.00;;;;10565594;28;20188;-76
2020/12/25 00:16:16;;;;;;;5.50;1.93;;;;;3.30;101583.00;;;;10548334;28;20207;-76
2020/12/25 00:21:17;;;;;;;5.47;1.87;;;;;3.30;101597.00;;;;10548199;28;20239;-76
2020/12/25 00:26:23;;;;;;;6.97;1.97;;;;;3.30;101601.00;;;;10547544;28;20188;-76
2020/12/25 00:31:30;;;;;;;8.37;2.17;;;;;3.20;101598.00;;;;10547202;28;20187;-76
2020/12/25 00:36:40;;;;;;;4.97;1.77;;;;;3.20;101600.00;;;;10529893;28;20639;-76
2020/12/25 00:41:50;;;;;;;4.37;1.43;;;;;3.00;101602.00;;;;10546955;28;20208;-76
2020/12/25 00:46:52;;;;;;;8.47;2.17;;;;;3.00;101601.00;;;;10564792;28;20253;-76
2020/12/25 00:51:56;;;;;;;5.43;1.53;;;;;2.90;101614.00;;;;10546568;28;20651;-76
2020/12/25 00:56:57;;;;;;;6.90;1.63;;;;;2.80;101604.00;;;;10546602;28;20211;-76
2020/12/25 01:02:11;;;;;;;4.70;1.30;;;;;2.70;101606.00;;;;10539873;28;20597;-76
2020/12/25 01:07:12;;;;;;;4.23;1.43;;;;;2.60;101608.00;;;;10546684;28;20193;-76
2020/12/25 01:12:13;;;;;;;6.93;1.50;;;;;2.50;101616.00;;;;10546549;28;20188;-76
2020/12/25 01:17:15;;;;;;;17.40;1.80;;;;;2.50;101615.00;;;;10562911;28;20200;-76
2020/12/25 01:22:17;;;;;;;4.13;1.43;;;;;2.50;101629.00;;;;10563094;28;20204;-76
2020/12/25 01:27:18;;;;;;;5.57;1.67;;;;;2.50;101638.00;;;;10546040;28;20188;-76
2020/12/25 01:32:19;;;;;;;4.20;1.80;;;;;2.40;101652.00;;;;10545756;28;20237;-76
2020/12/25 01:37:20;;;;;;;10.60;1.80;;;;;2.40;101655.00;;;;10529195;28;20226;-76
2020/12/25 01:42:22;;;;;;;3.83;1.30;;;;;2.40;101668.00;;;;10562542;28;20247;-76
2020/12/25 01:47:23;;;;;;;7.00;1.30;;;;;2.40;101671.00;;;;10532293;28;20837;-77
2020/12/25 01:52:25;;;;;;;3.83;1.57;;;;;2.40;101675.00;;;;10553929;28;20241;-76
2020/12/25 01:57:29;;;;;;;3.17;1.50;;;;;2.50;101688.00;;;;10570781;28;20216;-76
2020/12/25 02:02:30;;;;;;;4.93;1.40;;;;;2.60;101701.00;;;;10549608;28;20279;-76
2020/12/25 02:07:31;;;;;;;2.53;1.73;;;;;2.60;101698.00;;;;10511483;28;20648;-76
2020/12/25 02:12:33;;;;;;;7.30;1.40;;;;;2.50;101708.00;;;;10506839;28;20192;-76
2020/12/25 02:17:34;;;;;;;5.83;1.37;;;;;2.50;101707.00;;;;10536232;28;20192;-76
2020/12/25 02:22:36;;;;;;;4.53;1.40;;;;;2.40;101716.00;;;;10587598;28;20666;-76
2020/12/25 02:27:37;;;;;;;3.97;1.23;;;;;2.40;101718.00;;;;10610630;27;20192;-76
2020/12/25 02:32:39;;;;;;;5.07;1.50;;;;;2.40;101724.00;;;;10578579;27;20215;-76
2020/12/25 02:37:49;;;;;;;4.47;1.50;;;;;2.40;101726.00;;;;10629986;27;20213;-76
2020/12/25 02:42:51;;;;;;;6.07;1.60;;;;;2.30;101729.00;;;;10589668;27;20397;-76
2020/12/25 02:47:52;;;;;;;5.77;1.20;;;;;2.30;101736.00;;;;10576377;28;20185;-77
2020/12/25 02:52:53;;;;;;;2.30;1.33;;;;;2.30;101747.00;;;;10551417;28;20192;-76
2020/12/25 02:57:55;;;;;;;2.73;1.00;;;;;2.20;101765.00;;;;10533386;28;20208;-76
2020/12/25 03:02:56;;;;;;;1.97;0.93;;;;;2.10;101758.00;;;;10531377;28;20690;-76
2020/12/25 03:08:07;;;;;;;4.47;1.10;;;;;2.10;101772.00;;;;10550703;28;20224;-76
2020/12/25 03:13:09;;;;;;;3.23;1.07;;;;;2.20;101760.00;;;;10567820;28;20643;-77
2020/12/25 03:18:10;;;;;;;4.33;1.00;;;;;2.30;101776.00;;;;10550742;28;20204;-76
2020/12/25 03:23:12;;;;;;;4.90;1.60;;;;;2.40;101767.00;;;;10533557;28;20204;-76
2020/12/25 03:28:14;;;;;;;3.73;1.00;;;;;2.40;101778.00;;;;10566822;28;20704;-76
2020/12/25 03:33:15;;;;;;;7.30;1.60;;;;;2.40;101775.00;;;;10567607;28;20271;-76
2020/12/25 03:38:25;;;;;;;6.03;1.20;;;;;2.40;101763.00;;;;10549353;28;20234;-77
2020/12/25 03:43:26;;;;;;;1.43;0.80;;;;;2.30;101775.00;;;;10557644;27;20253;-76
2020/12/25 03:48:28;;;;;;;3.20;0.90;;;;;2.30;101771.00;;;;10591225;27;20222;-76
2020/12/25 03:53:30;;;;;;;1.83;1.00;;;;;2.40;101779.00;;;;10592216;27;20252;-76
2020/12/25 03:58:32;;;;;;;3.90;1.23;;;;;2.40;101796.00;;;;10591039;27;20204;-76
2020/12/25 04:03:34;;;;;;;3.97;1.20;;;;;2.20;101801.00;;;;10560329;28;20204;-76
2020/12/25 04:08:45;;;;;;;0.80;0.80;;;;;2.10;101813.00;;;;10532808;28;20249;-76
2020/12/25 04:13:47;;;;;;;4.00;1.10;;;;;1.90;101807.00;;;;10553283;27;20191;-77
2020/12/25 04:18:48;;;;;;;1.20;0.77;;;;;1.80;101818.00;;;;10573201;27;20282;-77
2020/12/25 04:23:49;;;;;;;3.93;0.90;;;;;1.80;101819.00;;;;10607727;27;20527;-76
2020/12/25 04:28:51;;;;;;;2.33;1.00;;;;;1.70;101825.00;;;;10607688;27;20630;-77
2020/12/25 04:33:53;;;;;;;3.13;1.00;;;;;1.60;101817.00;;;;10573110;27;20650;-77
2020/12/25 04:39:05;;;;;;;5.60;1.50;;;;;1.30;101826.00;;;;10573684;27;20639;-77
2020/12/25 04:44:06;;;;;;;4.57;1.93;;;;;1.10;101820.00;;;;10592833;27;20224;-77
2020/12/25 04:49:08;;;;;;;5.67;1.97;;;;;1.20;101832.00;;;;10582555;28;20192;-77
2020/12/25 04:54:10;;;;;;;4.67;2.03;;;;;1.40;101839.00;;;;10546795;28;20196;-77
2020/12/25 04:59:12;;;;;;;5.30;3.13;;;;;1.50;101833.00;;;;10563728;28;20548;-77
2020/12/25 05:04:19;;;;;;;7.27;2.70;;;;;1.40;101842.00;;;;10502730;28;20300;-77
2020/12/25 05:09:23;;;;;;;5.03;2.97;;;;;1.40;101847.00;;;;10522062;28;20223;-77
2020/12/25 05:14:27;;;;;;;6.33;3.30;;;;;1.40;101855.00;;;;10520454;28;20229;-77
2020/12/25 05:19:32;;;;;;;6.40;3.47;;;;;1.40;101878.00;;;;10563318;28;20208;-77
2020/12/25 05:24:39;;;;;;;4.73;3.67;;;;;1.40;101885.00;;;;10545242;28;20194;-77
2020/12/25 05:29:41;;;;;;;4.70;3.97;;;;;1.40;101881.00;;;;10529231;28;20219;-77
2020/12/25 05:34:46;;;;;;;4.63;4.00;;;;;1.30;101873.00;;;;10530033;28;20598;-77
2020/12/25 05:39:48;;;;;;;7.73;4.40;;;;;1.30;101873.00;;;;10581054;28;20204;-77
2020/12/25 05:44:50;;;;;;;7.73;5.13;;;;;1.20;101873.00;;;;10563014;28;20616;-77
2020/12/25 05:49:52;;;;;;;6.10;5.50;;;;;1.40;101890.00;;;;10545623;28;20188;-77
2020/12/25 05:54:58;;;;;;;11.63;7.37;;;;;1.60;101886.00;;;;10545347;28;20252;-77
2020/12/25 06:00:03;;;;;;;10.60;7.17;;;;;1.80;101899.00;;;;10562101;28;20205;-77
2020/12/25 06:05:07;;;;;;;8.97;7.63;;;;;1.80;101900.00;;;;10560932;28;20207;-77
2020/12/25 06:10:14;;;;;;;11.67;7.17;;;;;1.90;101914.00;;;;10561849;28;20286;-77
2020/12/25 06:15:34;;;;;;;7.70;6.90;;;;;1.80;101919.00;;;;10545673;28;20192;-77
2020/12/25 06:20:42;;;;;;;11.73;7.77;;;;;1.80;101937.00;;;;10580360;28;20550;-77
2020/12/25 06:25:50;;;;;;;8.93;7.20;;;;;1.90;101936.00;;;;10561695;28;20223;-77
2020/12/25 06:30:51;;;;;;;7.87;7.07;;;;;1.90;101932.00;;;;10545302;28;20184;-77
2020/12/25 06:35:58;;;;;;;9.27;6.93;;;;;1.90;101948.00;;;;10567987;28;20189;-77
2020/12/25 06:40:59;;;;;;;10.37;7.07;;;;;1.90;101942.00;;;;10568783;28;20208;-77
2020/12/25 06:46:03;;;;;;;11.30;7.93;;;;;1.90;101951.00;;;;10567145;27;20778;-77
2020/12/25 06:51:10;;;;;;;11.37;7.00;;;;;1.90;101950.00;;;;10509672;28;20189;-77
2020/12/25 06:56:20;;;;;;;11.63;7.30;;;;;1.80;101962.00;;;;10485087;28;20204;-77
2020/12/25 07:01:38;;;;;;;11.17;6.77;;;;;1.70;101960.00;;;;10501899;28;20620;-77
2020/12/25 07:06:42;;;;;;;7.93;6.63;;;;;1.80;101968.00;;;;10551645;28;20874;-77
2020/12/25 07:11:48;;;;;;;7.90;5.50;;;;;1.90;101979.00;;;;10568544;28;20195;-77
2020/12/25 07:16:50;;;;;;;7.63;6.30;;;;;1.90;101990.00;;;;10534768;28;20192;-77
2020/12/25 07:21:52;;;;;;;6.63;5.50;;;;;2.00;101984.00;;;;10550759;28;20658;-77
2020/12/25 07:26:54;;;;;;;8.27;6.47;;;;;2.00;101989.00;;;;10533994;28;20241;-77
2020/12/25 07:31:55;;;;;;;9.90;5.03;;;;;2.20;102007.00;;;;10567156;28;20241;-77
2020/12/25 07:36:57;;;;;;;9.57;5.23;;;;;2.30;102019.00;;;;10550380;28;20198;-77
2020/12/25 07:41:58;;;;;;;9.20;4.17;;;;;2.30;102015.00;;;;10533226;28;20914;-77
2020/12/25 07:47:00;;;;;;;6.73;3.77;;;;;2.20;102029.00;;;;10581690;27;20234;-77
2020/12/25 07:52:03;;;;;;;6.47;3.30;;;;;2.10;102024.00;;;;10569065;27;20188;-77
2020/12/25 07:57:05;;;;;;;6.30;2.97;;;;;2.00;102031.00;;;;10566358;28;20200;-77
2020/12/25 08:02:07;;;;;;;8.17;2.40;;;;;2.10;102036.00;;;;10582257;28;20295;-77
2020/12/25 08:07:09;;;;;;;6.87;2.70;;;;;2.10;102036.00;;;;10565875;28;20241;-77
2020/12/25 08:12:10;;;;;;;6.43;2.20;;;;;2.20;102048.00;;;;10548665;28;20195;-77
2020/12/25 08:17:13;;;;;;;6.20;2.27;;;;;2.40;102050.00;;;;10547904;28;20195;-77
2020/12/25 08:22:15;;;;;;;7.50;2.13;;;;;2.70;102044.00;;;;10548044;28;20212;-77
2020/12/25 08:27:17;;;;;;;2.77;1.70;;;;;2.90;102070.00;;;;10548132;28;20249;-77
2020/12/25 08:32:18;;;;;;;4.53;1.73;;;;;3.00;102063.00;;;;10583301;28;20249;-77
2020/12/25 08:37:22;;;;;;;5.57;2.10;;;;;3.20;102068.00;;;;10547806;28;20283;-76
2020/12/25 08:42:23;;;;;;;6.30;1.87;;;;;3.50;102063.00;;;;10547522;28;20713;-76
2020/12/25 08:47:25;;;;;;;5.63;1.77;;;;;3.70;102058.00;;;;10505264;28;20201;-77
2020/12/25 08:52:26;;;;;;;6.00;1.53;;;;;3.70;102062.00;;;;10505355;28;20189;-77
2020/12/25 08:57:30;;;;;;;5.27;1.63;;;;;3.60;102067.00;;;;10504537;28;20204;-76
2020/12/25 09:02:32;;;;;;;4.97;1.33;;;;;3.50;102068.00;;;;10513393;28;20235;-77
2020/12/25 09:07:33;;;;;;;4.87;2.30;;;;;3.30;102067.00;;;;10530313;28;20192;-76
2020/12/25 09:12:34;;;;;;;6.40;1.80;;;;;3.30;102070.00;;;;10563879;28;20245;-77
2020/12/25 09:17:36;;;;;;;9.43;2.27;;;;;3.60;102082.00;;;;10513123;28;20261;-77
2020/12/25 09:22:41;;;;;;;7.10;1.70;;;;;4.30;102084.00;;;;10530515;28;20239;-77
2020/12/25 09:27:43;;;;;;;7.07;1.30;;;;;4.90;102080.00;;;;10529626;28;20219;-77
2020/12/25 09:32:48;;;;;;;3.93;1.57;;;;;4.90;102085.00;;;;10546769;28;20192;-77
2020/12/25 09:37:49;;;;;;;4.00;1.80;;;;;5.40;102095.00;;;;10545895;28;20658;-77
2020/12/25 09:42:51;;;;;;;6.20;4.03;;;;;5.30;102086.00;;;;10529842;28;20251;-77
2020/12/25 09:47:52;;;;;;;5.37;3.37;;;;;4.70;102088.00;;;;10562884;28;20215;-77
2020/12/25 09:52:54;;;;;;;8.33;4.43;;;;;4.60;102098.00;;;;10563331;28;20237;-77
2020/12/25 09:57:55;;;;;;;9.37;4.00;;;;;5.20;102093.00;;;;10528642;28;20232;-77
2020/12/25 10:02:57;;;;;;;6.20;3.20;;;;;5.90;102091.00;;;;10535408;28;20609;-77
2020/12/25 10:07:59;;;;;;;5.07;2.87;;;;;5.60;102106.00;;;;10565812;28;20554;-77
2020/12/25 10:13:07;;;;;;;7.00;1.90;;;;;5.40;102103.00;;;;10537758;28;20193;-77
2020/12/25 10:18:08;;;;;;;3.17;1.60;;;;;5.50;102108.00;;;;10537444;28;20223;-77
2020/12/25 10:23:10;;;;;;;8.60;1.77;;;;;5.30;102108.00;;;;10553238;28;20236;-77
2020/12/25 10:28:11;;;;;;;4.37;1.60;;;;;5.00;102105.00;;;;10553378;28;20658;-77
2020/12/25 10:33:12;;;;;;;3.60;2.27;;;;;5.80;102101.00;;;;10553201;28;20192;-77
2020/12/25 10:38:13;;;;;;;6.47;2.00;;;;;6.10;102092.00;;;;10535878;28;20532;-77
2020/12/25 10:43:15;;;;;;;5.67;1.50;;;;;6.50;102096.00;;;;10541869;27;20260;-77
2020/12/25 10:48:16;;;;;;;6.23;2.43;;;;;6.80;102083.00;;;;10577916;27;20187;-77
2020/12/25 10:53:17;;;;;;;5.83;1.80;;;;;7.10;102089.00;;;;10534100;28;20205;-77
2020/12/25 10:58:19;;;;;;;6.90;1.70;;;;;7.30;102088.00;;;;10493716;28;20270;-77
2020/12/25 11:03:20;;;;;;;8.47;1.50;;;;;7.60;102090.00;;;;10536737;28;20212;-77
2020/12/25 11:08:21;;;;;;;9.80;2.30;;;;;7.70;102080.00;;;;10552410;28;20188;-77
2020/12/25 11:13:22;;;;;;;5.23;1.77;;;;;7.80;102083.00;;;;10552307;28;20192;-77
2020/12/25 11:18:24;;;;;;;7.33;1.97;;;;;8.00;102100.00;;;;10551306;28;20246;-77
2020/12/25 11:23:25;;;;;;;4.80;1.90;;;;;8.20;102089.00;;;;10537845;27;20241;-77
2020/12/25 11:28:26;;;;;;;7.57;2.53;;;;;8.40;102093.00;;;;10578719;27;20192;-77
2020/12/25 11:33:28;;;;;;;6.47;2.27;;;;;8.30;102086.00;;;;10545131;28;20295;-77
2020/12/25 11:38:29;;;;;;;7.07;1.90;;;;;8.30;102094.00;;;;10521137;28;20228;-77
2020/12/25 11:43:42;;;;;;;5.60;1.03;;;;;8.30;102095.00;;;;10546362;27;20273;-77
2020/12/25 11:48:45;;;;;;;5.17;1.10;;;;;8.00;102099.00;;;;10517848;28;20196;-77
2020/12/25 11:53:50;;;;;;;5.80;1.80;;;;;8.60;102091.00;;;;10569031;28;20219;-77
2020/12/25 11:58:52;;;;;;;10.93;1.77;;;;;8.30;102092.00;;;;10585974;28;20204;-77
2020/12/25 12:03:53;;;;;;;4.53;2.37;;;;;8.30;102081.00;;;;10535016;28;20208;-77
2020/12/25 12:08:55;;;;;;;10.33;2.07;;;;;8.30;102083.00;;;;10550750;28;20200;-77
2020/12/25 12:14:03;;;;;;;6.70;1.80;;;;;8.30;102088.00;;;;10568043;28;20192;-77
2020/12/25 12:19:04;;;;;;;10.93;1.67;;;;;8.20;102077.00;;;;10552485;28;20184;-77
2020/12/25 12:24:06;;;;;;;5.73;1.50;;;;;8.00;102070.00;;;;10560387;27;20218;-77
2020/12/25 12:29:07;;;;;;;6.93;1.90;;;;;8.20;102076.00;;;;10515487;28;20192;-77
2020/12/25 12:34:08;;;;;;;4.83;1.27;;;;;8.60;102071.00;;;;10509023;28;20291;-78
2020/12/25 12:39:10;;;;;;;11.10;2.00;;;;;8.30;102068.00;;;;10545042;27;20288;-77
2020/12/25 12:44:20;;;;;;;6.03;2.07;;;;;8.10;102072.00;;;;10578341;27;20644;-77
2020/12/25 12:49:22;;;;;;;7.80;1.90;;;;;8.00;102084.00;;;;10550924;28;20218;-77
2020/12/25 12:54:23;;;;;;;4.90;1.07;;;;;7.60;102063.00;;;;10516666;28;20192;-77
2020/12/25 12:59:25;;;;;;;6.33;1.40;;;;;7.40;102062.00;;;;10550265;28;20860;-77
2020/12/25 13:04:27;;;;;;;5.33;1.60;;;;;7.60;102071.00;;;;10550102;28;20547;-77
2020/12/25 13:09:29;;;;;;;7.07;1.43;;;;;7.30;102064.00;;;;10516386;28;20562;-77
2020/12/25 13:14:39;;;;;;;4.93;2.60;;;;;6.80;102050.00;;;;10565906;28;20184;-77
2020/12/25 13:19:41;;;;;;;5.90;1.30;;;;;6.80;102057.00;;;;10549349;28;20192;-77
2020/12/25 13:24:42;;;;;;;9.40;1.73;;;;;6.80;102054.00;;;;10565386;28;20639;-77
2020/12/25 13:29:44;;;;;;;7.07;1.33;;;;;7.00;102048.00;;;;10566288;28;20635;-77
2020/12/25 13:34:45;;;;;;;4.17;1.20;;;;;7.00;102057.00;;;;10532196;28;20192;-77
2020/12/25 13:39:47;;;;;;;4.03;1.10;;;;;7.00;102052.00;;;;10546537;28;20208;-78
2020/12/25 13:45:02;;;;;;;3.97;1.07;;;;;6.90;102048.00;;;;10558175;28;20293;-78
2020/12/25 13:50:04;;;;;;;2.20;0.80;;;;;6.80;102040.00;;;;10555849;28;20230;-77
2020/12/25 13:55:05;;;;;;;5.17;1.30;;;;;6.70;102051.00;;;;10556340;28;20204;-77
2020/12/25 14:00:07;;;;;;;4.93;1.10;;;;;6.60;102052.00;;;;10557069;28;20294;-77
2020/12/25 14:05:14;;;;;;;4.57;1.13;;;;;6.40;102054.00;;;;10555388;28;20188;-77
2020/12/25 14:10:16;;;;;;;6.40;1.20;;;;;6.20;102052.00;;;;10556322;28;20219;-77
2020/12/25 14:15:21;;;;;;;5.40;1.53;;;;;6.10;102058.00;;;;10563488;27;20203;-77
2020/12/25 14:20:23;;;;;;;7.73;1.53;;;;;6.00;102061.00;;;;10599651;27;20196;-77
2020/12/25 14:25:25;;;;;;;6.10;1.27;;;;;5.90;102058.00;;;;10598134;27;20215;-77
2020/12/25 14:30:27;;;;;;;7.83;1.80;;;;;6.10;102060.00;;;;10615664;27;20525;-77
2020/12/25 14:35:31;;;;;;;5.90;1.20;;;;;6.30;102056.00;;;;10614090;27;20593;-77
2020/12/25 14:40:34;;;;;;;4.53;1.23;;;;;6.30;102056.00;;;;10539120;28;20215;-77
2020/12/25 14:45:44;;;;;;;4.67;1.50;;;;;6.20;102064.00;;;;10537547;28;20633;-77
2020/12/25 14:50:45;;;;;;;7.70;1.63;;;;;6.00;102074.00;;;;10554454;28;20197;-78
2020/12/25 14:55:47;;;;;;;4.03;1.03;;;;;5.40;102083.00;;;;10532155;28;20643;-78
2020/12/25 15:00:49;;;;;;;3.00;1.30;;;;;4.60;102075.00;;;;10526349;28;20208;-78
2020/12/25 15:05:50;;;;;;;2.57;1.40;;;;;4.30;102081.00;;;;10572463;28;20195;-78
2020/12/25 15:10:51;;;;;;;3.77;2.03;;;;;4.10;102086.00;;;;10554872;28;20227;-78
2020/12/25 15:15:59;;;;;;;5.30;1.90;;;;;4.00;102084.00;;;;10553960;28;20196;-78
2020/12/25 15:21:02;;;;;;;5.87;2.17;;;;;3.90;102086.00;;;;10536160;28;20378;-77
2020/12/25 15:26:04;;;;;;;7.60;2.07;;;;;3.70;102089.00;;;;10568857;28;20190;-77
2020/12/25 15:31:08;;;;;;;4.03;2.20;;;;;3.60;102101.00;;;;10587147;28;20260;-77
2020/12/25 15:36:14;;;;;;;7.87;2.20;;;;;3.50;102110.00;;;;10542780;28;20196;-78
2020/12/25 15:41:16;;;;;;;4.73;2.20;;;;;3.30;102117.00;;;;10534268;28;20226;-77
2020/12/25 15:46:19;;;;;;;4.07;2.40;;;;;3.20;102119.00;;;;10567516;28;20284;-77
2020/12/25 15:51:21;;;;;;;8.93;4.40;;;;;3.10;102119.00;;;;10585490;28;20912;-77
2020/12/25 15:56:23;;;;;;;20.60;9.47;;;;;3.20;102119.00;;;;10567525;28;20337;-77
2020/12/25 16:01:30;;;;;;;25.43;10.27;;;;;3.40;102131.00;;;;10549499;28;20204;-78
2020/12/25 16:06:36;;;;;;;9.20;3.40;;;;;3.50;102125.00;;;;10566994;28;20245;-77
2020/12/25 16:11:38;;;;;;;6.80;2.73;;;;;3.50;102135.00;;;;10550419;28;20271;-78
2020/12/25 16:16:40;;;;;;;5.03;2.90;;;;;3.40;102131.00;;;;10508378;28;20193;-77
2020/12/25 16:21:46;;;;;;;8.80;4.37;;;;;3.30;102147.00;;;;10508068;28;20737;-77
2020/12/25 16:26:47;;;;;;;10.10;4.07;;;;;3.10;102144.00;;;;10524480;28;20227;-77
2020/12/25 16:31:48;;;;;;;6.40;4.17;;;;;3.00;102147.00;;;;10507263;28;20217;-77
2020/12/25 16:36:53;;;;;;;7.77;4.03;;;;;2.90;102140.00;;;;10507489;28;20197;-77
2020/12/25 16:41:54;;;;;;;9.47;4.27;;;;;2.70;102144.00;;;;10506618;28;20707;-77
2020/12/25 16:46:59;;;;;;;9.30;4.80;;;;;2.60;102156.00;;;;10561045;28;20196;-77
2020/12/25 16:52:05;;;;;;;9.33;4.00;;;;;2.50;102161.00;;;;10547790;28;20283;-77
2020/12/25 16:57:07;;;;;;;9.67;5.80;;;;;2.60;102155.00;;;;10547890;27;20200;-77
2020/12/25 17:02:08;;;;;;;19.63;8.80;;;;;2.50;102143.00;;;;10581607;28;20193;-77
2020/12/25 17:07:10;;;;;;;13.83;8.73;;;;;2.50;102158.00;;;;10555965;28;20210;-77
2020/12/25 17:12:12;;;;;;;14.60;8.17;;;;;2.60;102159.00;;;;10564337;28;20191;-77
2020/12/25 17:17:19;;;;;;;18.43;10.27;;;;;2.70;102167.00;;;;10566369;28;20202;-77
2020/12/25 17:22:21;;;;;;;11.63;7.70;;;;;2.80;102164.00;;;;10530726;28;20827;-77
2020/12/25 17:27:23;;;;;;;14.33;9.53;;;;;2.90;102158.00;;;;10547792;28;20261;-77
2020/12/25 17:32:25;;;;;;;15.40;8.57;;;;;2.90;102155.00;;;;10547352;28;20241;-77
2020/12/25 17:37:27;;;;;;;13.97;8.60;;;;;3.00;102160.00;;;;10546564;28;20191;-77
2020/12/25 17:42:46;;;;;;;23.70;13.10;;;;;2.80;102158.00;;;;10546933;28;20625;-77
2020/12/25 17:47:47;;;;;;;20.93;13.00;;;;;2.60;102148.00;;;;10547047;28;20218;-77
2020/12/25 17:52:48;;;;;;;17.13;11.53;;;;;2.50;102146.00;;;;10546176;28;20210;-77
2020/12/25 17:57:50;;;;;;;19.03;11.30;;;;;2.40;102158.00;;;;10546448;28;20228;-77
2020/12/25 18:02:51;;;;;;;14.50;9.40;;;;;2.50;102181.00;;;;10537628;28;20214;-78
2020/12/25 18:07:53;;;;;;;14.07;9.53;;;;;2.50;102177.00;;;;10546504;28;20257;-78
2020/12/25 18:12:55;;;;;;;19.00;10.20;;;;;2.70;102182.00;;;;10563101;28;20265;-77
2020/12/25 18:17:56;;;;;;;25.63;11.00;;;;;2.70;102183.00;;;;10547162;28;20249;-78
2020/12/25 18:22:57;;;;;;;19.57;10.73;;;;;2.70;102177.00;;;;10529259;28;20240;-77
2020/12/25 18:27:59;;;;;;;16.47;8.93;;;;;2.70;102174.00;;;;10547148;28;20605;-77
2020/12/25 18:33:00;;;;;;;17.27;9.40;;;;;2.90;102194.00;;;;10553895;28;20200;-77
2020/12/25 18:38:02;;;;;;;16.97;10.03;;;;;3.00;102188.00;;;;10571232;28;20627;-78
2020/12/25 18:43:04;;;;;;;16.87;9.57;;;;;3.00;102184.00;;;;10587159;27;20238;-78
2020/12/25 18:48:13;;;;;;;15.80;8.50;;;;;3.00;102181.00;;;;10527369;28;20189;-77
2020/12/25 18:53:15;;;;;;;16.90;9.87;;;;;2.90;102170.00;;;;10525380;28;20191;-77
2020/12/25 18:58:18;;;;;;;11.37;8.97;;;;;2.80;102154.00;;;;10508500;28;20228;-77
2020/12/25 19:03:19;;;;;;;13.13;7.87;;;;;2.70;102171.00;;;;10518848;28;20212;-77
2020/12/25 19:08:21;;;;;;;13.97;8.07;;;;;2.60;102178.00;;;;10550216;28;20298;-77
2020/12/25 19:13:23;;;;;;;11.17;8.13;;;;;2.40;102178.00;;;;10549047;28;20192;-77
2020/12/25 19:18:33;;;;;;;13.80;8.80;;;;;2.30;102179.00;;;;10550532;28;20547;-77
2020/12/25 19:23:35;;;;;;;19.37;9.10;;;;;2.30;102190.00;;;;10566679;28;20559;-77
2020/12/25 19:28:36;;;;;;;13.53;7.30;;;;;2.30;102191.00;;;;10548719;28;20621;-77
2020/12/25 19:33:39;;;;;;;9.43;6.00;;;;;2.30;102174.00;;;;10549689;28;20188;-77
2020/12/25 19:38:40;;;;;;;20.27;8.37;;;;;2.20;102175.00;;;;10548849;28;20196;-77
2020/12/25 19:43:42;;;;;;;10.90;8.13;;;;;2.00;102175.00;;;;10540787;27;20227;-77
2020/12/25 19:48:49;;;;;;;14.17;9.07;;;;;1.80;102173.00;;;;10574348;27;20681;-77
2020/12/25 19:53:55;;;;;;;18.43;9.50;;;;;1.70;102176.00;;;;10626238;27;20195;-77
2020/12/25 19:58:56;;;;;;;20.03;10.70;;;;;1.60;102171.00;;;;10607171;27;20248;-77
2020/12/25 20:03:59;;;;;;;20.23;11.40;;;;;1.50;102171.00;;;;10556257;28;20709;-77
2020/12/25 20:09:01;;;;;;;19.27;12.50;;;;;1.60;102163.00;;;;10547390;28;20192;-77
2020/12/25 20:14:02;;;;;;;20.43;9.70;;;;;1.70;102164.00;;;;10547613;28;20852;-77
2020/12/25 20:19:10;;;;;;;15.37;9.60;;;;;1.80;102160.00;;;;10548271;28;20613;-77
2020/12/25 20:24:13;;;;;;;23.17;12.57;;;;;2.00;102158.00;;;;10546925;28;20212;-77
2020/12/25 20:29:15;;;;;;;20.60;12.73;;;;;2.10;102171.00;;;;10547274;28;20223;-77
2020/12/25 20:34:16;;;;;;;20.27;12.40;;;;;2.30;102177.00;;;;10563096;28;20200;-77
2020/12/25 20:39:19;;;;;;;19.07;12.33;;;;;2.30;102175.00;;;;10546235;28;20249;-77
2020/12/25 20:44:20;;;;;;;19.50;11.60;;;;;2.30;102155.00;;;;10556311;27;20238;-77
2020/12/25 20:49:32;;;;;;;19.20;11.60;;;;;2.30;102164.00;;;;10589957;27;20184;-77
2020/12/25 20:54:33;;;;;;;16.40;11.60;;;;;2.20;102167.00;;;;10622788;27;20249;-77
2020/12/25 20:59:35;;;;;;;19.50;11.43;;;;;2.20;102168.00;;;;10604839;27;20195;-77
2020/12/25 21:04:36;;;;;;;22.80;12.97;;;;;2.10;102166.00;;;;10524222;28;20250;-77
2020/12/25 21:09:38;;;;;;;38.30;24.67;;;;;2.10;102166.00;;;;10538636;28;20230;-77
2020/12/25 21:14:40;;;;;;;38.03;20.23;;;;;2.10;102161.00;;;;10521306;28;20195;-77
2020/12/25 21:19:50;;;;;;;26.80;19.17;;;;;2.00;102154.00;;;;10545338;28;20200;-77
2020/12/25 21:24:51;;;;;;;36.33;25.53;;;;;1.90;102156.00;;;;10561441;28;20822;-77
2020/12/25 21:29:52;;;;;;;27.60;18.60;;;;;1.80;102167.00;;;;10528077;28;20647;-77
2020/12/25 21:34:54;;;;;;;27.73;18.63;;;;;1.70;102181.00;;;;10544551;28;20188;-77
2020/12/25 21:39:56;;;;;;;27.57;17.83;;;;;1.60;102187.00;;;;10527814;28;20257;-77
2020/12/25 21:44:58;;;;;;;27.33;18.10;;;;;1.70;102175.00;;;;10581671;28;20215;-77
2020/12/25 21:50:09;;;;;;;27.87;18.07;;;;;1.80;102170.00;;;;10554290;28;20202;-77
2020/12/25 21:55:11;;;;;;;25.47;18.17;;;;;2.00;102174.00;;;;10586074;27;20210;-77
2020/12/25 22:00:13;;;;;;;27.77;17.53;;;;;2.00;102176.00;;;;10551067;28;20191;-77
2020/12/25 22:05:17;;;;;;;31.67;18.83;;;;;1.90;102181.00;;;;10539892;28;20508;-77
2020/12/25 22:10:18;;;;;;;23.83;17.27;;;;;1.80;102189.00;;;;10509940;28;20222;-77
2020/12/25 22:15:20;;;;;;;29.00;16.23;;;;;1.80;102196.00;;;;10533113;28;20204;-77
2020/12/25 22:20:31;;;;;;;22.47;15.73;;;;;1.80;102194.00;;;;10570636;28;20196;-77
2020/12/25 22:25:32;;;;;;;26.20;16.83;;;;;1.90;102192.00;;;;10586942;28;20233;-77
2020/12/25 22:30:34;;;;;;;26.03;16.03;;;;;2.00;102182.00;;;;10518261;28;20196;-77
2020/12/25 22:35:35;;;;;;;26.43;16.47;;;;;2.10;102179.00;;;;10586857;28;20282;-77
2020/12/25 22:40:36;;;;;;;21.80;15.53;;;;;2.10;102183.00;;;;10568099;28;20273;-77
2020/12/25 22:45:38;;;;;;;24.27;15.10;;;;;2.10;102185.00;;;;10534041;28;20625;-77
2020/12/25 22:50:47;;;;;;;20.33;14.43;;;;;2.10;102188.00;;;;10568089;28;20861;-77
2020/12/25 22:55:48;;;;;;;26.63;14.40;;;;;2.20;102168.00;;;;10585443;28;20192;-77
2020/12/25 23:00:49;;;;;;;21.53;14.10;;;;;2.30;102176.00;;;;10565198;28;20204;-77
2020/12/25 23:05:53;;;;;;;18.87;13.73;;;;;2.30;102182.00;;;;10533565;28;20293;-77
2020/12/25 23:10:54;;;;;;;19.90;13.37;;;;;2.40;102182.00;;;;10584722;28;20671;-77
2020/12/25 23:15:55;;;;;;;17.87;11.47;;;;;2.50;102182.00;;;;10531882;28;20597;-77
2020/12/25 23:21:13;;;;;;;17.63;11.87;;;;;2.60;102198.00;;;;10534517;28;20208;-77
2020/12/25 23:26:17;;;;;;;23.10;13.53;;;;;2.70;102194.00;;;;10566502;28;20293;-77
2020/12/25 23:31:19;;;;;;;17.37;10.57;;;;;2.80;102188.00;;;;10565789;28;20180;-77
2020/12/25 23:36:22;;;;;;;19.73;10.27;;;;;2.80;102192.00;;;;10565575;28;20188;-77
2020/12/25 23:41:24;;;;;;;14.67;10.50;;;;;2.90;102191.00;;;;10565278;28;20307;-77
2020/12/25 23:46:26;;;;;;;12.97;9.57;;;;;2.90;102188.00;;;;10564280;27;20226;-77
2020/12/25 23:51:34;;;;;;;12.80;9.67;;;;;2.90;102178.00;;;;10590385;27;20270;-77
2020/12/25 23:56:36;;;;;;;16.83;10.80;;;;;3.00;102191.00;;;;10556200;27;20199;-77
